createdAt,value
2022-09-23T00:12:05.671Z,2.47
2022-09-23T00:27:09.678Z,2.77
2022-09-23T00:42:11.131Z,2.63
2022-09-23T00:57:12.690Z,2.67
2022-09-23T01:12:14.147Z,2.60
2022-09-23T01:27:15.605Z,2.30
2022-09-23T01:42:17.169Z,2.50
2022-09-23T01:57:18.634Z,3.07
2022-09-23T02:12:20.093Z,2.40
2022-09-23T02:27:21.554Z,2.40
2022-09-23T02:42:23.009Z,3.07
2022-09-23T02:57:24.465Z,3.53
2022-09-23T03:12:25.927Z,2.80
2022-09-23T03:27:27.399Z,2.20
2022-09-23T03:42:28.967Z,2.70
2022-09-23T03:57:30.433Z,3.13
2022-09-23T04:12:31.895Z,2.67
2022-09-23T04:27:37.600Z,3.47
2022-09-23T04:42:39.458Z,2.40
2022-09-23T04:57:40.919Z,2.50
2022-09-23T05:12:42.377Z,2.17
2022-09-23T05:27:43.838Z,2.37
2022-09-23T05:42:45.307Z,2.40
2022-09-23T05:57:46.767Z,2.40
2022-09-23T06:12:48.230Z,2.20
2022-09-23T06:27:49.713Z,2.00
2022-09-23T06:42:52.427Z,2.00
2022-09-23T06:57:54.009Z,2.10
2022-09-23T07:12:55.476Z,3.50
2022-09-23T07:27:57.015Z,2.73
2022-09-23T07:42:58.466Z,2.60
2022-09-23T07:57:59.923Z,2.70
2022-09-23T08:13:01.386Z,2.90
2022-09-23T08:28:02.858Z,2.57
2022-09-23T08:43:04.319Z,3.20
2022-09-23T08:58:24.609Z,2.50
2022-09-23T09:13:26.651Z,3.03
2022-09-23T09:28:28.244Z,2.70
2022-09-23T09:43:32.361Z,3.10
2022-09-23T09:58:34.002Z,3.17
2022-09-23T10:13:35.466Z,3.30
2022-09-23T10:28:36.926Z,2.80
2022-09-23T10:43:38.401Z,3.10
2022-09-23T10:58:39.863Z,2.93
2022-09-23T11:13:41.334Z,2.63
2022-09-23T11:28:42.792Z,2.63
2022-09-23T11:43:44.240Z,2.67
2022-09-23T11:58:50.022Z,2.70
2022-09-23T12:13:55.570Z,2.80
2022-09-23T12:28:57.025Z,2.50
2022-09-23T12:43:58.500Z,2.57
2022-09-23T12:58:59.964Z,2.33
2022-09-23T13:14:01.430Z,2.30
2022-09-23T13:29:02.943Z,2.60
2022-09-23T13:44:04.406Z,2.73
2022-09-23T13:59:05.886Z,2.20
2022-09-23T14:14:07.669Z,2.40
2022-09-23T14:29:09.472Z,2.30
2022-09-23T14:44:10.969Z,2.10
2022-09-23T14:59:12.433Z,2.50
2022-09-23T15:14:36.838Z,2.50
2022-09-23T15:29:35.311Z,2.40
2022-09-23T15:44:36.782Z,2.60
2022-09-23T15:59:38.270Z,1.90
2022-09-23T16:14:39.837Z,2.07
2022-09-23T16:29:41.296Z,2.13
2022-09-23T16:44:42.745Z,1.93
2022-09-23T16:59:44.216Z,1.70
2022-09-23T17:14:45.690Z,2.00
2022-09-23T17:29:47.133Z,2.03
2022-09-23T17:44:48.582Z,2.07
2022-09-23T17:59:51.156Z,2.13
2022-09-23T18:14:52.617Z,2.30
2022-09-23T18:29:54.090Z,2.10
2022-09-23T18:44:55.557Z,2.37
2022-09-23T18:59:57.022Z,2.30
2022-09-23T19:14:58.502Z,2.40
2022-09-23T19:29:59.966Z,3.50
2022-09-23T19:45:01.430Z,3.33
2022-09-23T20:00:02.893Z,3.70
2022-09-23T20:15:04.381Z,3.40
2022-09-23T20:30:05.843Z,3.90
2022-09-23T20:45:07.307Z,3.90
2022-09-23T21:00:08.815Z,3.90
2022-09-23T21:15:10.268Z,3.93
2022-09-23T21:30:11.734Z,4.37
2022-09-23T21:45:13.211Z,3.70
2022-09-23T22:00:14.663Z,3.50
2022-09-23T22:15:16.131Z,3.20
2022-09-23T22:30:17.610Z,3.00
2022-09-23T22:45:19.094Z,3.00
2022-09-23T23:00:20.587Z,3.20
2022-09-23T23:15:22.081Z,3.13
2022-09-23T23:30:23.544Z,3.50
2022-09-23T23:45:25.014Z,3.13
